createdAt,value
2018-10-18T00:00:29.260Z,100970.41
2018-10-18T00:01:07.292Z,100971.25
2018-10-18T00:01:45.109Z,100970.72
2018-10-18T00:02:23.156Z,100975.30
2018-10-18T00:03:01.565Z,100972.87
2018-10-18T00:03:40.855Z,100979.05
2018-10-18T00:04:18.773Z,100977.48
2018-10-18T00:04:56.600Z,100982.28
2018-10-18T00:05:36.015Z,100986.09
2018-10-18T00:06:14.067Z,100989.05
2018-10-18T00:06:52.029Z,100985.30
2018-10-18T00:07:30.053Z,100988.52
2018-10-18T00:08:08.434Z,100988.29
2018-10-18T00:08:46.361Z,100990.98
2018-10-18T00:09:24.329Z,100991.27
2018-10-18T00:10:02.646Z,100992.08
2018-10-18T00:10:40.562Z,100989.93
2018-10-18T00:11:19.973Z,100998.53
2018-10-18T00:11:58.718Z,100996.12
2018-10-18T00:12:37.624Z,100999.37
2018-10-18T00:13:16.235Z,101004.48
2018-10-18T00:13:54.135Z,101005.30
2018-10-18T00:14:32.260Z,101007.18
2018-10-18T00:15:11.256Z,101007.72
2018-10-18T00:15:50.892Z,101008.80
2018-10-18T00:16:29.198Z,101007.72
2018-10-18T00:18:10.815Z,101019.28
2018-10-18T00:18:48.789Z,101023.05
2018-10-18T00:19:28.152Z,101031.11
2018-10-18T00:20:06.172Z,101034.88
2018-10-18T00:20:44.786Z,101033.00
2018-10-18T00:21:22.724Z,101035.69
2018-10-18T00:22:02.320Z,101050.25
2018-10-18T00:22:40.175Z,101042.72
2018-10-18T00:23:18.052Z,101050.52
2018-10-18T00:23:55.983Z,101045.98
2018-10-18T00:24:34.361Z,101042.98
2018-10-18T00:25:12.481Z,101044.34
2018-10-18T00:25:51.265Z,101047.86
2018-10-18T00:26:29.408Z,101046.52
2018-10-18T00:27:07.404Z,101056.20
2018-10-18T00:27:45.597Z,101052.98
2018-10-18T00:28:23.505Z,101051.91
2018-10-18T00:29:01.530Z,101052.17
2018-10-18T00:29:39.363Z,101054.05
2018-10-18T00:30:17.844Z,101050.83
2018-10-18T00:30:55.941Z,101058.36
2018-10-18T00:31:34.077Z,101060.01
2018-10-18T00:32:12.165Z,101058.93
2018-10-18T00:32:50.223Z,101065.39
2018-10-18T00:33:28.274Z,101065.66
2018-10-18T00:34:07.809Z,101062.16
2018-10-18T00:34:45.781Z,101066.73
2018-10-18T00:35:23.732Z,101074.00
2018-10-18T00:36:02.235Z,101071.31
2018-10-18T00:36:41.405Z,101076.69
2018-10-18T00:37:19.296Z,101076.16
2018-10-18T00:37:57.193Z,101080.19
2018-10-18T00:38:35.160Z,101079.65
2018-10-18T00:39:15.570Z,101080.45
2018-10-18T00:39:53.504Z,101080.45
2018-10-18T00:40:31.417Z,101078.84
2018-10-18T00:41:09.596Z,101085.84
2018-10-18T00:41:47.543Z,101081.80
2018-10-18T00:42:25.574Z,101089.06
2018-10-18T00:43:03.717Z,101087.72
2018-10-18T00:43:41.601Z,101087.72
2018-10-18T00:44:19.503Z,101092.03
2018-10-18T00:44:57.546Z,101086.11
2018-10-18T00:45:35.475Z,101092.30
2018-10-18T00:46:13.351Z,101087.98
2018-10-18T00:46:51.342Z,101087.19
2018-10-18T00:47:29.197Z,101087.45
2018-10-18T00:48:07.227Z,101093.11
2018-10-18T00:48:45.208Z,101095.52
2018-10-18T00:49:23.965Z,101099.83
2018-10-18T00:50:03.677Z,101094.72
2018-10-18T00:50:41.603Z,101096.88
2018-10-18T00:51:19.543Z,101095.80
2018-10-18T00:51:57.466Z,101093.38
2018-10-18T00:52:35.368Z,101100.38
2018-10-18T00:53:13.295Z,101099.05
2018-10-18T00:53:51.212Z,101099.86
2018-10-18T00:54:30.161Z,101110.09
2018-10-18T00:55:08.505Z,101109.82
2018-10-18T00:55:47.345Z,101117.36
2018-10-18T00:56:25.419Z,101118.16
2018-10-18T00:57:03.832Z,101125.43
2018-10-18T00:57:42.376Z,101125.70
2018-10-18T00:58:20.309Z,101126.23
2018-10-18T00:58:58.265Z,101121.93
2018-10-18T00:59:36.140Z,101126.23
2018-10-18T01:00:15.337Z,101124.08
2018-10-18T01:00:54.172Z,101127.85
2018-10-18T01:01:32.076Z,101129.47
2018-10-18T01:02:10.219Z,101123.01
2018-10-18T01:02:48.835Z,101124.89
2018-10-18T01:03:28.639Z,101130.81
2018-10-18T01:04:06.974Z,101128.93
2018-10-18T01:04:45.513Z,101132.43
2018-10-18T01:05:25.187Z,101131.62
2018-10-18T01:06:03.188Z,101130.55
2018-10-18T01:06:41.733Z,101135.12
2018-10-18T01:07:19.893Z,101141.58
2018-10-18T01:07:58.220Z,101137.81
2018-10-18T01:08:36.521Z,101143.20
2018-10-18T01:09:15.496Z,101145.08
2018-10-18T01:09:54.003Z,101148.05
2018-10-18T01:10:32.365Z,101144.00
2018-10-18T01:11:11.104Z,101153.16
2018-10-18T01:11:48.978Z,101152.89
2018-10-18T01:12:26.911Z,101153.69
2018-10-18T01:13:05.177Z,101153.42
2018-10-18T01:13:43.119Z,101154.77
2018-10-18T01:14:21.966Z,101162.53
2018-10-18T01:15:00.285Z,101161.19
2018-10-18T01:15:38.709Z,101160.66
2018-10-18T01:16:18.469Z,101164.95
2018-10-18T01:17:05.799Z,101162.53
2018-10-18T01:17:44.822Z,101166.56
2018-10-18T01:18:22.795Z,101165.75
2018-10-18T01:19:00.788Z,101171.12
2018-10-18T01:19:40.309Z,101166.55
2018-10-18T01:20:18.321Z,101168.43
2018-10-18T01:20:56.322Z,101172.73
2018-10-18T01:21:34.294Z,101167.62
2018-10-18T01:22:12.338Z,101170.01
2018-10-18T01:22:50.366Z,101169.73
2018-10-18T01:23:28.365Z,101176.46
2018-10-18T01:24:07.254Z,101175.39
2018-10-18T01:24:45.369Z,101178.38
2018-10-18T01:25:23.272Z,101174.34
2018-10-18T01:26:03.187Z,101177.31
2018-10-18T01:26:41.141Z,101178.92
2018-10-18T01:27:19.317Z,101174.08
2018-10-18T01:27:57.394Z,101181.61
2018-10-18T01:28:36.502Z,101176.23
2018-10-18T01:29:14.452Z,101171.12
2018-10-18T01:29:52.733Z,101172.47
2018-10-18T01:30:30.636Z,101172.47
2018-10-18T01:31:09.001Z,101172.47
2018-10-18T01:31:46.941Z,101174.08
2018-10-18T01:32:24.920Z,101172.73
2018-10-18T01:33:02.759Z,101174.62
2018-10-18T01:33:40.950Z,101178.39
2018-10-18T01:34:18.908Z,101176.23
2018-10-18T01:34:57.257Z,101176.23
2018-10-18T01:35:35.331Z,101174.36
2018-10-18T01:36:13.324Z,101178.39
2018-10-18T01:36:51.391Z,101177.31
2018-10-18T01:37:29.248Z,101169.25
2018-10-18T01:38:07.624Z,101174.36
2018-10-18T01:38:45.653Z,101170.59
2018-10-18T01:39:23.656Z,101175.70
2018-10-18T01:40:02.975Z,101167.91
2018-10-18T01:40:40.939Z,101171.94
2018-10-18T01:41:19.133Z,101169.79
2018-10-18T01:41:57.248Z,101167.38
2018-10-18T01:42:35.484Z,101171.14
2018-10-18T01:43:13.745Z,101170.88
2018-10-18T01:43:52.254Z,101168.72
2018-10-18T01:44:31.580Z,101170.33
2018-10-18T01:45:10.959Z,101165.49
2018-10-18T01:45:49.203Z,101169.80
2018-10-18T01:46:27.432Z,101172.22
2018-10-18T01:47:05.652Z,101171.95
2018-10-18T01:47:43.675Z,101172.26
2018-10-18T01:48:21.855Z,101170.38
2018-10-18T01:48:59.726Z,101176.03
2018-10-18T01:49:37.631Z,101172.27
2018-10-18T01:50:15.683Z,101175.23
2018-10-18T01:50:53.672Z,101179.80
2018-10-18T01:51:31.862Z,101177.92
2018-10-18T01:52:10.743Z,101183.04
2018-10-18T01:52:48.836Z,101182.23
2018-10-18T01:53:27.108Z,101180.14
2018-10-18T01:54:05.353Z,101179.60
2018-10-18T01:54:43.264Z,101183.37
2018-10-18T01:55:21.489Z,101182.59
2018-10-18T01:55:59.419Z,101187.16
2018-10-18T01:56:38.296Z,101180.43
2018-10-18T01:57:16.249Z,101180.16
2018-10-18T01:57:54.224Z,101182.31
2018-10-18T01:58:32.055Z,101171.53
2018-10-18T01:59:10.047Z,101180.15
2018-10-18T01:59:47.973Z,101184.46
2018-10-18T02:00:25.923Z,101184.46
2018-10-18T02:01:04.441Z,101182.30
2018-10-18T02:01:42.674Z,101180.69
2018-10-18T02:02:20.614Z,101179.33
2018-10-18T02:02:58.660Z,101181.78
2018-10-18T02:03:37.186Z,101181.25
2018-10-18T02:04:15.752Z,101183.13
2018-10-18T02:04:53.554Z,101182.05
2018-10-18T02:05:31.741Z,101173.70
2018-10-18T02:06:09.963Z,101175.85
2018-10-18T02:06:48.053Z,101176.66
2018-10-18T02:07:26.009Z,101174.78
2018-10-18T02:08:04.009Z,101175.05
2018-10-18T02:08:42.480Z,101167.23
2018-10-18T02:09:20.325Z,101172.61
2018-10-18T02:09:58.219Z,101171.80
2018-10-18T02:10:36.164Z,101169.64
2018-10-18T02:11:15.260Z,101167.22
2018-10-18T02:11:53.160Z,101165.33
2018-10-18T02:12:31.123Z,101164.25
2018-10-18T02:13:10.084Z,101167.48
2018-10-18T02:13:48.110Z,101160.75
2018-10-18T02:14:26.129Z,101163.71
2018-10-18T02:15:04.223Z,101165.86
2018-10-18T02:15:43.253Z,101170.44
2018-10-18T02:16:21.145Z,101171.52
2018-10-18T02:16:59.461Z,101169.09
2018-10-18T02:17:37.306Z,101167.50
2018-10-18T02:18:16.040Z,101171.00
2018-10-18T02:18:54.169Z,101169.11
2018-10-18T02:19:32.123Z,101174.23
2018-10-18T02:20:11.825Z,101171.80
2018-10-18T02:20:49.717Z,101176.92
2018-10-18T02:21:27.666Z,101178.00
2018-10-18T02:22:05.426Z,101180.42
2018-10-18T02:22:43.540Z,101176.92
2018-10-18T02:23:21.505Z,101180.69
2018-10-18T02:23:59.524Z,101180.98
2018-10-18T02:24:37.362Z,101184.76
2018-10-18T02:25:16.020Z,101183.95
2018-10-18T02:25:54.402Z,101184.48
2018-10-18T02:26:32.211Z,101181.23
2018-10-18T02:27:11.004Z,101184.47
2018-10-18T02:27:48.958Z,101183.38
2018-10-18T02:28:26.841Z,101187.42
2018-10-18T02:29:05.254Z,101184.98
2018-10-18T02:29:43.305Z,101186.61
2018-10-18T02:30:21.377Z,101191.16
2018-10-18T02:30:59.369Z,101189.26
2018-10-18T02:31:37.242Z,101190.04
2018-10-18T02:32:15.164Z,101188.97
2018-10-18T02:32:53.351Z,101190.55
2018-10-18T02:33:31.304Z,101194.90
2018-10-18T02:34:09.293Z,101193.27
2018-10-18T02:34:47.271Z,101194.05
2018-10-18T02:35:25.183Z,101192.17
2018-10-18T02:36:03.100Z,101193.77
2018-10-18T02:36:40.980Z,101192.69
2018-10-18T02:37:18.966Z,101192.95
2018-10-18T02:37:56.757Z,101193.23
2018-10-18T02:38:34.719Z,101201.05
2018-10-18T02:39:16.270Z,101198.09
2018-10-18T02:39:54.457Z,101194.85
2018-10-18T02:40:32.645Z,101196.47
2018-10-18T02:41:14.426Z,101195.11
2018-10-18T02:41:52.437Z,101197.27
2018-10-18T02:42:30.398Z,101198.08
2018-10-18T02:43:08.909Z,101199.95
2018-10-18T02:43:46.859Z,101205.36
2018-10-18T02:44:25.204Z,101204.53
2018-10-18T02:45:03.154Z,101202.38
2018-10-18T02:45:40.991Z,101209.39
2018-10-18T02:46:19.500Z,101208.58
2018-10-18T02:46:58.080Z,101206.14
2018-10-18T02:47:36.011Z,101209.11
2018-10-18T02:48:14.215Z,101211.55
2018-10-18T02:48:52.174Z,101208.84
2018-10-18T02:49:30.037Z,101210.47
2018-10-18T02:50:08.888Z,101211.82
2018-10-18T02:50:46.795Z,101216.15
2018-10-18T02:51:24.748Z,101222.35
2018-10-18T02:52:02.718Z,101218.31
2018-10-18T02:52:40.697Z,101221.84
2018-10-18T02:53:19.029Z,101226.69
2018-10-18T02:53:57.039Z,101225.88
2018-10-18T02:54:34.967Z,101228.58
2018-10-18T02:55:12.876Z,101222.92
2018-10-18T02:55:50.803Z,101226.97
2018-10-18T02:56:28.656Z,101219.15
2018-10-18T02:57:06.530Z,101226.41
2018-10-18T02:57:44.426Z,101226.41
2018-10-18T02:58:22.272Z,101224.52
2018-10-18T02:59:00.336Z,101231.81
2018-10-18T02:59:38.228Z,101230.46
2018-10-18T03:00:16.236Z,101229.64
2018-10-18T03:00:54.208Z,101229.11
2018-10-18T03:01:32.055Z,101229.93
2018-10-18T03:02:10.946Z,101225.62
2018-10-18T03:02:49.054Z,101226.44
2018-10-18T03:03:27.031Z,101223.73
2018-10-18T03:04:04.994Z,101221.83
2018-10-18T03:04:42.957Z,101220.48
2018-10-18T03:05:23.098Z,101216.70
2018-10-18T03:06:01.967Z,101222.09
2018-10-18T03:06:39.873Z,101211.03
2018-10-18T03:07:17.736Z,101209.97
2018-10-18T03:07:55.722Z,101214.02
2018-10-18T03:08:33.511Z,101204.61
2018-10-18T03:09:14.122Z,101208.62
2018-10-18T03:09:52.136Z,101212.41
2018-10-18T03:10:29.969Z,101212.14
2018-10-18T03:11:08.312Z,101211.61
2018-10-18T03:11:46.419Z,101210.80
2018-10-18T03:12:24.669Z,101213.50
2018-10-18T03:13:02.708Z,101206.48
2018-10-18T03:13:40.673Z,101209.45
2018-10-18T03:14:18.595Z,101202.70
2018-10-18T03:14:56.481Z,101211.06
2018-10-18T03:15:34.419Z,101203.23
2018-10-18T03:16:12.570Z,101204.04
2018-10-18T03:16:50.579Z,101199.98
2018-10-18T03:17:28.667Z,101204.56
2018-10-18T03:18:06.724Z,101202.42
2018-10-18T03:18:44.561Z,101204.30
2018-10-18T03:19:22.533Z,101203.21
2018-10-18T03:20:00.333Z,101203.48
2018-10-18T03:20:38.250Z,101203.73
2018-10-18T03:21:16.175Z,101198.34
2018-10-18T03:21:54.133Z,101194.02
2018-10-18T03:22:32.053Z,101189.95
2018-10-18T03:23:10.321Z,101192.92
2018-10-18T03:23:48.311Z,101194.55
2018-10-18T03:24:26.249Z,101193.98
2018-10-18T03:25:04.183Z,101190.20
2018-10-18T03:25:42.033Z,101193.41
2018-10-18T03:26:19.912Z,101190.16
2018-10-18T03:26:57.891Z,101190.98
2018-10-18T03:27:35.965Z,101187.98
2018-10-18T03:28:14.834Z,101191.73
2018-10-18T03:28:52.721Z,101191.70
2018-10-18T03:29:30.688Z,101185.73
2018-10-18T03:30:08.881Z,101183.04
2018-10-18T03:30:46.825Z,101187.34
2018-10-18T03:31:24.688Z,101186.55
2018-10-18T03:32:02.645Z,101185.73
2018-10-18T03:32:40.641Z,101185.18
2018-10-18T03:33:18.534Z,101184.64
2018-10-18T03:33:56.470Z,101179.48
2018-10-18T03:34:34.461Z,101173.02
2018-10-18T03:35:12.561Z,101174.62
2018-10-18T03:35:51.103Z,101166.27
2018-10-18T03:36:29.005Z,101170.27
2018-10-18T03:37:07.666Z,101169.73
2018-10-18T03:37:45.620Z,101167.83
2018-10-18T03:38:23.654Z,101168.87
2018-10-18T03:39:01.607Z,101167.27
2018-10-18T03:39:39.476Z,101165.61
2018-10-18T03:40:17.338Z,101169.66
2018-10-18T03:40:55.276Z,101167.80
2018-10-18T03:41:33.176Z,101166.17
2018-10-18T03:42:11.146Z,101165.11
2018-10-18T03:42:49.139Z,101170.27
2018-10-18T03:43:27.345Z,101171.12
2018-10-18T03:44:05.188Z,101168.73
2018-10-18T03:44:43.197Z,101174.94
2018-10-18T03:45:21.117Z,101171.72
2018-10-18T03:46:00.267Z,101168.79
2018-10-18T03:46:38.120Z,101170.17
2018-10-18T03:47:16.087Z,101168.58
2018-10-18T03:47:54.040Z,101175.59
2018-10-18T03:48:31.865Z,101173.47
2018-10-18T03:49:09.878Z,101175.64
2018-10-18T03:49:47.695Z,101180.51
2018-10-18T03:50:25.625Z,101178.38
2018-10-18T03:51:03.516Z,101181.63
2018-10-18T03:51:41.463Z,101180.01
2018-10-18T03:52:19.448Z,101166.02
2018-10-18T03:52:57.396Z,101173.03
2018-10-18T03:53:35.291Z,101169.53
2018-10-18T03:54:13.455Z,101170.89
2018-10-18T03:54:51.609Z,101164.66
2018-10-18T03:55:29.490Z,101168.71
2018-10-18T03:56:07.234Z,101163.05
2018-10-18T03:56:45.296Z,101164.95
2018-10-18T03:57:23.168Z,101170.34
2018-10-18T03:58:01.051Z,101160.91
2018-10-18T03:58:39.089Z,101169.29
2018-10-18T03:59:17.056Z,101171.18
2018-10-18T03:59:54.993Z,101168.73
2018-10-18T04:00:33.072Z,101164.70
2018-10-18T04:01:11.040Z,101170.10
2018-10-18T04:01:49.025Z,101169.57
2018-10-18T04:02:26.963Z,101176.59
2018-10-18T04:03:04.925Z,101172.55
2018-10-18T04:03:43.992Z,101173.64
2018-10-18T04:04:21.890Z,101169.88
2018-10-18T04:05:01.134Z,101166.66
2018-10-18T04:05:39.068Z,101167.47
2018-10-18T04:06:18.451Z,101168.25
2018-10-18T04:06:57.601Z,101170.42
2018-10-18T04:07:35.600Z,101167.19
2018-10-18T04:11:14.971Z,101163.41
2018-10-18T04:11:53.279Z,101167.18
2018-10-18T04:12:31.798Z,101160.46
2018-10-18T04:13:10.310Z,101162.61
2018-10-18T04:13:48.193Z,101158.27
2018-10-18T04:14:26.481Z,101154.77
2018-10-18T04:15:04.547Z,101152.86
2018-10-18T04:15:42.433Z,101153.66
2018-10-18T04:16:20.821Z,101157.42
2018-10-18T04:16:58.900Z,101149.32
2018-10-18T04:17:37.846Z,101148.23
2018-10-18T04:18:15.829Z,101148.77
2018-10-18T04:18:53.788Z,101140.95
2018-10-18T04:19:31.709Z,101142.59
2018-10-18T04:20:10.598Z,101140.15
2018-10-18T04:20:48.593Z,101140.68
2018-10-18T04:21:27.932Z,101136.09
2018-10-18T04:22:05.774Z,101137.42
2018-10-18T04:22:43.801Z,101136.06
2018-10-18T04:23:32.292Z,101128.25
2018-10-18T04:24:10.315Z,101131.21
2018-10-18T04:24:48.462Z,101128.78
2018-10-18T04:25:26.816Z,101119.59
2018-10-18T04:26:05.684Z,101129.30
2018-10-18T04:26:43.763Z,101129.83
2018-10-18T04:27:21.663Z,101125.78
2018-10-18T04:27:59.801Z,101124.96
2018-10-18T04:28:37.670Z,101123.10
2018-10-18T04:29:15.715Z,101122.00
2018-10-18T04:29:53.711Z,101119.30
2018-10-18T04:30:31.664Z,101121.73
2018-10-18T04:31:09.585Z,101129.05
2018-10-18T04:31:47.584Z,101121.77
2018-10-18T04:32:25.505Z,101128.80
2018-10-18T04:33:03.421Z,101129.36
2018-10-18T04:33:41.317Z,101129.89
2018-10-18T04:34:19.193Z,101120.73
2018-10-18T04:34:57.069Z,101123.19
2018-10-18T04:35:35.223Z,101120.78
2018-10-18T04:36:13.088Z,101119.98
2018-10-18T04:36:51.127Z,101118.91
2018-10-18T04:37:29.045Z,101115.95
2018-10-18T04:38:06.988Z,101116.50
2018-10-18T04:38:44.946Z,101115.98
2018-10-18T04:39:22.781Z,101119.72
2018-10-18T04:40:00.659Z,101115.44
2018-10-18T04:40:39.080Z,101115.41
2018-10-18T04:41:16.901Z,101113.00
2018-10-18T04:41:54.950Z,101112.74
2018-10-18T04:42:33.063Z,101111.13
2018-10-18T04:43:11.833Z,101109.52
2018-10-18T04:43:49.713Z,101111.68
2018-10-18T04:44:27.846Z,101106.30
2018-10-18T04:45:06.227Z,101106.84
2018-10-18T04:45:47.290Z,101109.27
2018-10-18T04:46:25.259Z,101106.31
2018-10-18T04:47:03.152Z,101104.16
2018-10-18T04:47:41.176Z,101098.23
2018-10-18T04:48:19.261Z,101095.53
2018-10-18T04:48:57.211Z,101092.57
2018-10-18T04:49:35.108Z,101085.83
2018-10-18T04:50:13.256Z,101085.29
2018-10-18T04:50:51.089Z,101081.52
2018-10-18T04:51:28.872Z,101085.30
2018-10-18T04:52:06.763Z,101084.77
2018-10-18T04:52:44.663Z,101085.85
2018-10-18T04:53:22.577Z,101083.12
2018-10-18T04:54:00.440Z,101080.16
2018-10-18T04:54:39.113Z,101075.84
2018-10-18T04:55:17.703Z,101072.89
2018-10-18T04:55:57.289Z,101075.58
2018-10-18T04:56:35.087Z,101066.97
2018-10-18T04:57:14.520Z,101069.66
2018-10-18T04:57:52.303Z,101066.97
2018-10-18T04:58:31.604Z,101069.12
2018-10-18T04:59:09.630Z,101074.52
2018-10-18T04:59:47.890Z,101062.12
2018-10-18T05:00:26.192Z,101065.91
2018-10-18T05:01:04.608Z,101061.33
2018-10-18T05:01:43.788Z,101059.45
2018-10-18T05:02:21.698Z,101058.38
2018-10-18T05:03:01.437Z,101059.19
2018-10-18T05:03:39.645Z,101055.70
2018-10-18T05:04:17.807Z,101062.97
2018-10-18T05:06:05.001Z,101064.83
2018-10-18T05:06:43.717Z,101053.25
2018-10-18T05:07:22.142Z,101057.83
2018-10-18T05:08:00.552Z,101050.02
2018-10-18T05:08:40.833Z,101047.88
2018-10-18T05:09:20.342Z,101045.45
2018-10-18T05:09:58.947Z,101050.56
2018-10-18T05:10:36.901Z,101047.06
2018-10-18T05:11:15.160Z,101041.67
2018-10-18T05:11:55.134Z,101045.45
2018-10-18T05:12:33.517Z,101037.90
2018-10-18T05:13:12.265Z,101035.73
2018-10-18T05:13:52.266Z,101032.77
2018-10-18T05:14:30.759Z,101030.88
2018-10-18T05:15:10.267Z,101031.14
2018-10-18T05:15:48.576Z,101029.50
2018-10-18T05:16:28.343Z,101033.00
2018-10-18T05:17:06.777Z,101024.13
2018-10-18T05:17:45.589Z,101027.34
2018-10-18T05:18:25.254Z,101024.66
2018-10-18T05:19:03.293Z,101019.82
2018-10-18T05:19:42.643Z,101017.92
2018-10-18T05:20:21.744Z,101019.25
2018-10-18T05:21:00.340Z,101017.61
2018-10-18T05:21:38.759Z,101015.70
2018-10-18T05:22:16.732Z,101016.78
2018-10-18T05:22:55.391Z,101020.00
2018-10-18T05:23:33.340Z,101020.80
2018-10-18T05:24:11.985Z,101022.41
2018-10-18T05:24:50.893Z,101019.72
2018-10-18T05:25:29.300Z,101022.14
2018-10-18T05:26:08.181Z,101012.97
2018-10-18T05:26:46.078Z,101017.80
2018-10-18T05:27:24.101Z,101019.41
2018-10-18T05:28:02.308Z,101016.17
2018-10-18T05:28:40.620Z,101023.16
2018-10-18T05:29:19.157Z,101025.03
2018-10-18T05:29:57.863Z,101024.75
2018-10-18T05:30:36.368Z,101018.26
2018-10-18T05:31:14.654Z,101020.94
2018-10-18T05:31:52.711Z,101018.80
2018-10-18T05:32:31.229Z,101019.04
2018-10-18T05:33:09.564Z,101019.83
2018-10-18T05:33:47.984Z,101007.16
2018-10-18T05:34:25.937Z,101016.56
2018-10-18T05:35:05.192Z,101016.84
2018-10-18T05:35:43.051Z,101013.86
2018-10-18T05:36:21.490Z,101011.95
2018-10-18T05:37:00.199Z,101017.06
2018-10-18T05:37:38.244Z,101017.33
2018-10-18T05:38:16.668Z,101013.28
2018-10-18T05:38:55.082Z,101008.95
2018-10-18T05:39:33.005Z,101011.11
2018-10-18T05:40:12.311Z,101012.46
2018-10-18T05:40:50.243Z,101008.67
2018-10-18T05:41:28.585Z,101008.12
2018-10-18T05:42:06.430Z,101008.94
2018-10-18T05:42:44.317Z,101012.42
2018-10-18T05:43:25.136Z,101010.50
2018-10-18T05:44:03.248Z,101012.38
2018-10-18T05:44:41.319Z,101003.97
2018-10-18T05:45:19.405Z,101012.02
2018-10-18T05:45:59.318Z,100995.83
2018-10-18T05:46:37.705Z,101002.82
2018-10-18T05:47:15.722Z,100992.28
2018-10-18T05:47:54.725Z,100990.36
2018-10-18T05:48:33.074Z,100984.11
2018-10-18T05:49:11.397Z,100984.34
2018-10-18T05:49:49.683Z,100984.34
2018-10-18T05:50:27.814Z,100984.58
2018-10-18T05:51:05.879Z,100975.95
2018-10-18T05:51:44.002Z,100975.13
2018-10-18T05:52:22.201Z,100978.35
2018-10-18T05:53:00.405Z,100981.00
2018-10-18T05:53:39.486Z,100980.13
2018-10-18T05:54:17.462Z,100981.69
2018-10-18T05:54:55.392Z,100973.50
2018-10-18T05:55:33.433Z,100970.73
2018-10-18T05:56:11.396Z,100976.84
2018-10-18T05:56:49.269Z,100964.98
2018-10-18T05:57:27.635Z,100978.64
2018-10-18T05:58:05.612Z,100966.97
2018-10-18T05:58:44.081Z,100965.80
2018-10-18T05:59:22.194Z,100964.41
2018-10-18T06:00:00.195Z,100960.58
2018-10-18T06:00:38.465Z,100958.13
2018-10-18T06:01:16.393Z,100961.34
2018-10-18T06:01:55.329Z,100960.24
2018-10-18T06:02:33.323Z,100957.10
2018-10-18T06:03:11.429Z,100949.87
2018-10-18T06:03:49.306Z,100946.11
2018-10-18T06:04:27.230Z,100946.91
2018-10-18T06:05:07.195Z,100936.95
2018-10-18T06:05:45.151Z,100944.76
2018-10-18T06:06:23.153Z,100938.30
2018-10-18T06:07:01.129Z,100939.35
2018-10-18T06:07:39.267Z,100933.98
2018-10-18T06:08:17.305Z,100937.23
2018-10-18T06:08:55.435Z,100932.37
2018-10-18T06:09:34.912Z,100928.58
2018-10-18T06:10:22.354Z,100928.32
2018-10-18T06:11:09.407Z,100931.83
2018-10-18T06:11:47.378Z,100929.39
2018-10-18T06:12:26.164Z,100928.58
2018-10-18T06:13:04.405Z,100927.73
2018-10-18T06:13:42.433Z,100924.20
2018-10-18T06:14:20.839Z,100923.39
2018-10-18T06:14:58.759Z,100919.04
2018-10-18T06:15:37.988Z,100916.84
2018-10-18T06:16:16.232Z,100917.14
2018-10-18T06:16:54.150Z,100915.50
2018-10-18T06:17:32.576Z,100913.30
2018-10-18T06:18:12.445Z,100910.89
2018-10-18T06:18:50.509Z,100901.94
2018-10-18T06:19:28.617Z,100906.55
2018-10-18T06:20:06.625Z,100898.73
2018-10-18T06:20:44.568Z,100892.81
2018-10-18T06:21:22.960Z,100895.22
2018-10-18T06:22:00.989Z,100894.17
2018-10-18T06:22:39.041Z,100893.58
2018-10-18T06:23:17.398Z,100893.84
2018-10-18T06:23:55.349Z,100893.03
2018-10-18T06:24:33.354Z,100887.08
2018-10-18T06:25:12.255Z,100887.04
2018-10-18T06:25:50.209Z,100882.18
2018-10-18T06:26:32.510Z,100884.55
2018-10-18T06:27:10.424Z,100874.25
2018-10-18T06:27:48.882Z,100878.17
2018-10-18T06:28:26.907Z,100866.80
2018-10-18T06:29:06.245Z,100863.22
2018-10-18T06:29:44.662Z,100874.63
2018-10-18T06:30:23.109Z,100872.11
2018-10-18T06:31:01.399Z,100868.55
2018-10-18T06:31:39.421Z,100868.05
2018-10-18T06:32:17.357Z,100872.06
2018-10-18T06:32:55.308Z,100876.02
2018-10-18T06:33:33.359Z,100871.92
2018-10-18T06:34:11.539Z,100864.10
2018-10-18T06:34:49.420Z,100861.25
2018-10-18T06:35:27.508Z,100861.81
2018-10-18T06:36:05.549Z,100860.20
2018-10-18T06:36:43.413Z,100857.34
2018-10-18T06:37:21.880Z,100851.17
2018-10-18T06:38:00.224Z,100848.81
2018-10-18T06:38:38.373Z,100852.08
2018-10-18T06:39:16.272Z,100852.14
2018-10-18T06:39:54.285Z,100852.48
2018-10-18T06:40:32.238Z,100861.91
2018-10-18T06:41:11.050Z,100860.53
2018-10-18T06:41:49.107Z,100856.28
2018-10-18T06:42:27.010Z,100861.09
2018-10-18T06:43:05.111Z,100860.53
2018-10-18T06:43:43.867Z,100853.23
2018-10-18T06:44:21.898Z,100859.44
2018-10-18T06:45:00.402Z,100852.38
2018-10-18T06:45:38.547Z,100846.17
2018-10-18T06:46:16.903Z,100845.66
2018-10-18T06:46:55.435Z,100849.67
2018-10-18T06:47:34.120Z,100846.17
2018-10-18T06:48:12.134Z,100844.56
2018-10-18T06:48:50.410Z,100839.97
2018-10-18T06:49:28.494Z,100844.56
2018-10-18T06:50:06.561Z,100847.33
2018-10-18T06:50:44.516Z,100843.86
2018-10-18T06:51:22.654Z,100846.10
2018-10-18T06:52:00.628Z,100846.91
2018-10-18T06:52:38.581Z,100841.50
2018-10-18T06:53:17.216Z,100843.70
2018-10-18T06:53:55.132Z,100840.23
2018-10-18T06:54:33.049Z,100836.77
2018-10-18T06:55:11.098Z,100840.87
2018-10-18T06:55:49.053Z,100843.03
2018-10-18T06:56:27.345Z,100836.56
2018-10-18T06:57:05.696Z,100834.20
2018-10-18T06:57:44.502Z,100838.59
2018-10-18T06:58:22.356Z,100841.59
2018-10-18T06:59:00.452Z,100841.89
2018-10-18T06:59:38.388Z,100835.21
2018-10-18T07:00:19.753Z,100840.36
2018-10-18T07:00:58.424Z,100845.77
2018-10-18T07:01:36.767Z,100842.31
2018-10-18T07:02:15.043Z,100846.62
2018-10-18T07:02:53.401Z,100840.41
2018-10-18T07:03:31.683Z,100835.25
2018-10-18T07:04:10.927Z,100824.41
2018-10-18T07:04:49.023Z,100818.66
2018-10-18T07:05:27.522Z,100809.45
2018-10-18T07:06:05.636Z,100812.11
2018-10-18T07:06:43.678Z,100809.41
2018-10-18T07:07:21.880Z,100805.06
2018-10-18T07:08:00.047Z,100814.22
2018-10-18T07:08:37.938Z,100812.91
2018-10-18T07:09:16.824Z,100810.72
2018-10-18T07:09:54.744Z,100810.13
2018-10-18T07:10:33.686Z,100796.44
2018-10-18T07:11:11.725Z,100813.88
2018-10-18T07:11:49.849Z,100806.02
2018-10-18T07:12:27.732Z,100813.84
2018-10-18T07:13:05.850Z,100813.28
2018-10-18T07:13:43.845Z,100805.18
2018-10-18T07:14:22.876Z,100814.03
2018-10-18T07:15:00.904Z,100809.94
2018-10-18T07:15:38.819Z,100809.64
2018-10-18T07:16:16.841Z,100813.95
2018-10-18T07:16:54.902Z,100810.14
2018-10-18T07:17:33.088Z,100798.31
2018-10-18T07:18:11.044Z,100803.94
2018-10-18T07:18:48.947Z,100804.44
2018-10-18T07:19:26.840Z,100805.24
2018-10-18T07:20:04.709Z,100809.05
2018-10-18T07:20:42.576Z,100813.66
2018-10-18T07:21:20.591Z,100808.80
2018-10-18T07:21:58.990Z,100803.38
2018-10-18T07:22:37.420Z,100811.25